Time;durP1;ratioP1;P1;durP2;ratioP2;P2;SDS_P1;SDS_P2;PMS_P1;PMS_P2;Temp;Humidity;BMP_temperature;BMP_pressure;BME280_temperature;BME280_humidity;BME280_pressure;Samples;Min_cycle;Max_cycle;Signal;HPM_P1;HPM_P2
2023/10/05 00:03:57;;;;;;;15.20;6.40;;;;;;;;;;2615528;54;20946;-72
2023/10/05 00:06:24;;;;;;;8.67;5.90;;;;;;;;;;2613691;54;20531;-73
2023/10/05 00:11:54;;;;;;;11.87;6.10;;;;;;;;;;2614685;54;20387;-74
2023/10/05 00:17:23;;;;;;;10.63;7.27;;;;;;;;;;2615308;54;20436;-74
2023/10/05 00:22:57;;;;;;;7.93;4.70;;;;;;;;;;2612861;39;20841;-73
2023/10/05 00:28:27;;;;;;;8.97;5.97;;;;;;;;;;2615240;54;20415;-73
2023/10/05 00:33:58;;;;;;;11.93;6.03;;;;;;;;;;2615545;54;20363;-73
2023/10/05 00:39:31;;;;;;;12.53;7.10;;;;;;;;;;2615542;54;20371;-73
2023/10/05 00:45:05;;;;;;;22.03;6.93;;;;;;;;;;2615051;54;20850;-75
2023/10/05 00:50:35;;;;;;;9.07;5.20;;;;;;;;;;2613970;54;20375;-74
2023/10/05 00:56:11;;;;;;;10.67;5.90;;;;;;;;;;2615219;54;20388;-75
2023/10/05 01:10:48;;;;;;;11.20;5.53;;;;;;;;;;2614486;54;20374;-74
2023/10/05 01:16:20;;;;;;;5.80;4.97;;;;;;;;;;2614877;39;20742;-74
2023/10/05 01:21:51;;;;;;;12.30;5.47;;;;;;;;;;2612789;54;20416;-74
2023/10/05 01:27:21;;;;;;;10.37;5.00;;;;;;;;;;2614530;54;20411;-75
2023/10/05 01:32:51;;;;;;;8.60;4.60;;;;;;;;;;2615149;54;20382;-75
2023/10/05 01:38:20;;;;;;;9.20;4.33;;;;;;;;;;2614954;54;20556;-75
2023/10/05 01:43:51;;;;;;;10.27;6.40;;;;;;;;;;2614095;54;20399;-75
2023/10/05 01:49:20;;;;;;;6.37;4.90;;;;;;;;;;2615246;39;20731;-75
2023/10/05 01:54:52;;;;;;;16.50;5.13;;;;;;;;;;2615090;54;20383;-75
2023/10/05 02:00:23;;;;;;;6.80;5.07;;;;;;;;;;2612575;39;20856;-74
2023/10/05 02:05:58;;;;;;;10.07;5.80;;;;;;;;;;2615036;54;20403;-75
2023/10/05 02:11:28;;;;;;;15.17;5.90;;;;;;;;;;2613775;54;20451;-75
2023/10/05 02:16:57;;;;;;;7.10;4.90;;;;;;;;;;2612538;54;20390;-74
2023/10/05 02:22:27;;;;;;;3.90;3.57;;;;;;;;;;2614037;54;20422;-73
2023/10/05 02:27:57;;;;;;;13.17;4.90;;;;;;;;;;2614931;54;20403;-74
2023/10/05 02:33:27;;;;;;;8.50;4.97;;;;;;;;;;2613171;54;20481;-74
2023/10/05 02:39:00;;;;;;;11.20;5.10;;;;;;;;;;2615034;54;20383;-74
2023/10/05 02:44:31;;;;;;;20.87;5.63;;;;;;;;;;2614841;39;20830;-74
2023/10/05 02:50:01;;;;;;;10.77;5.00;;;;;;;;;;2615477;54;20366;-74
2023/10/05 02:55:36;;;;;;;7.80;4.73;;;;;;;;;;2615139;54;20395;-74
2023/10/05 03:01:10;;;;;;;10.40;4.93;;;;;;;;;;2614870;54;20459;-74
2023/10/05 03:06:40;;;;;;;7.20;5.80;;;;;;;;;;2618049;54;20387;-73
2023/10/05 03:15:49;;;;;;;7.37;5.60;;;;;;;;;;2617982;54;20952;-72
2023/10/05 03:21:18;;;;;;;9.33;4.30;;;;;;;;;;2617821;54;20379;-72
2023/10/05 03:26:51;;;;;;;8.17;4.70;;;;;;;;;;2618331;39;20892;-72
2023/10/05 03:32:28;;;;;;;6.00;4.40;;;;;;;;;;2617617;46;20394;-72
2023/10/05 03:37:57;;;;;;;5.50;3.93;;;;;;;;;;2616527;54;20383;-72
2023/10/05 03:43:27;;;;;;;9.70;4.10;;;;;;;;;;2616295;54;20499;-72
2023/10/05 03:49:00;;;;;;;8.00;4.97;;;;;;;;;;2616138;54;20406;-73
2023/10/05 03:54:29;;;;;;;10.93;4.67;;;;;;;;;;2616495;54;20383;-72
2023/10/05 03:59:59;;;;;;;8.07;4.30;;;;;;;;;;2616184;54;20511;-73
2023/10/05 04:05:28;;;;;;;7.53;3.93;;;;;;;;;;2616035;54;20398;-73
2023/10/05 04:10:59;;;;;;;5.50;4.13;;;;;;;;;;2617145;54;20494;-72
2023/10/05 04:16:33;;;;;;;17.40;4.50;;;;;;;;;;2614149;39;20961;-72
2023/10/05 04:22:03;;;;;;;8.00;3.90;;;;;;;;;;2613088;54;20400;-73
2023/10/05 04:27:33;;;;;;;8.40;4.33;;;;;;;;;;2614314;54;21304;-73
2023/10/05 04:33:03;;;;;;;4.20;2.87;;;;;;;;;;2615034;54;20375;-73
2023/10/05 04:38:32;;;;;;;16.80;4.53;;;;;;;;;;2614768;54;20419;-72
2023/10/05 04:44:12;;;;;;;9.13;4.70;;;;;;;;;;2611904;54;20386;-73
2023/10/05 04:49:44;;;;;;;5.00;3.77;;;;;;;;;;2613495;54;20362;-72
2023/10/05 04:55:23;;;;;;;7.53;5.17;;;;;;;;;;2610001;54;20403;-72
2023/10/05 05:06:42;;;;;;;6.10;3.60;;;;;;;;;;2611427;54;20399;-73
2023/10/05 05:15:39;;;;;;;8.10;4.20;;;;;;;;;;2613649;54;20420;-73
2023/10/05 05:21:08;;;;;;;8.33;4.60;;;;;;;;;;2613183;54;20439;-73
2023/10/05 05:26:37;;;;;;;4.40;3.73;;;;;;;;;;2613380;54;20943;-76
2023/10/05 05:37:56;;;;;;;6.63;4.10;;;;;;;;;;2609603;39;21005;-75
2023/10/05 05:43:29;;;;;;;7.77;4.43;;;;;;;;;;2613068;54;20442;-75
2023/10/05 05:48:59;;;;;;;10.30;4.77;;;;;;;;;;2611771;54;20395;-75
2023/10/05 05:54:31;;;;;;;7.23;3.70;;;;;;;;;;2610407;54;20474;-73
2023/10/05 06:00:10;;;;;;;8.23;4.40;;;;;;;;;;2612450;54;20351;-73
2023/10/05 06:02:55;;;;;;;9.20;4.47;;;;;;;;;;2611653;54;20407;-73
2023/10/05 06:05:22;;;;;;;6.70;3.53;;;;;;;;;;2611862;54;20438;-73
2023/10/05 06:08:28;;;;;;;4.43;3.87;;;;;;;;;;2612452;54;20423;-74
2023/10/05 06:10:55;;;;;;;7.57;4.80;;;;;;;;;;2610115;54;20411;-74
2023/10/05 06:16:25;;;;;;;13.93;4.47;;;;;;;;;;2612421;54;20370;-73
2023/10/05 06:21:54;;;;;;;9.47;4.60;;;;;;;;;;2612023;54;20363;-74
2023/10/05 06:27:23;;;;;;;7.57;4.47;;;;;;;;;;2612333;54;21489;-75
2023/10/05 06:32:54;;;;;;;15.00;5.23;;;;;;;;;;2612606;54;20407;-75
2023/10/05 06:38:23;;;;;;;13.57;7.17;;;;;;;;;;2612612;47;20821;-75
2023/10/05 06:43:53;;;;;;;8.77;5.30;;;;;;;;;;2612892;54;20390;-75
2023/10/05 06:49:23;;;;;;;18.17;5.00;;;;;;;;;;2612806;54;20378;-74
2023/10/05 06:54:52;;;;;;;8.70;4.53;;;;;;;;;;2613157;46;20435;-75
2023/10/05 07:00:22;;;;;;;16.33;5.17;;;;;;;;;;2612247;54;20350;-76
2023/10/05 07:05:54;;;;;;;12.20;5.60;;;;;;;;;;2617081;39;21186;-74
2023/10/05 07:11:24;;;;;;;9.50;5.80;;;;;;;;;;2616565;54;20375;-74
2023/10/05 07:16:55;;;;;;;7.67;4.70;;;;;;;;;;2616391;39;20743;-74
2023/10/05 07:22:25;;;;;;;12.17;5.03;;;;;;;;;;2616477;54;20387;-75
2023/10/05 07:27:55;;;;;;;6.57;4.80;;;;;;;;;;2616731;54;20407;-73
2023/10/05 07:33:26;;;;;;;14.70;5.77;;;;;;;;;;2616429;54;20945;-74
2023/10/05 07:38:57;;;;;;;11.40;6.30;;;;;;;;;;2617502;54;20367;-74
2023/10/05 07:44:27;;;;;;;6.20;5.30;;;;;;;;;;2617001;46;20387;-73
2023/10/05 07:49:57;;;;;;;9.73;5.03;;;;;;;;;;2617829;39;20480;-74
2023/10/05 07:55:26;;;;;;;7.83;5.50;;;;;;;;;;2616843;54;20475;-74
2023/10/05 08:00:56;;;;;;;4.90;4.03;;;;;;;;;;2617598;46;20395;-74
2023/10/05 08:06:25;;;;;;;10.30;5.40;;;;;;;;;;2616851;54;20977;-73
2023/10/05 08:18:04;;;;;;;6.53;4.93;;;;;;;;;;2614607;54;20366;-74
2023/10/05 08:23:34;;;;;;;9.80;6.20;;;;;;;;;;2614719;54;20359;-73
2023/10/05 08:29:06;;;;;;;11.27;6.10;;;;;;;;;;2614516;54;20379;-74
2023/10/05 08:34:39;;;;;;;13.23;6.63;;;;;;;;;;2614412;54;20366;-74
2023/10/05 08:46:05;;;;;;;10.90;5.50;;;;;;;;;;2614495;54;20913;-74
2023/10/05 08:51:35;;;;;;;12.87;6.50;;;;;;;;;;2611146;54;20391;-74
2023/10/05 08:57:11;;;;;;;12.93;6.63;;;;;;;;;;2614961;54;20355;-73
2023/10/05 09:02:40;;;;;;;8.60;6.50;;;;;;;;;;2612477;54;20977;-74
2023/10/05 09:08:10;;;;;;;18.97;8.20;;;;;;;;;;2615150;54;20367;-74
2023/10/05 09:22:56;;;;;;;14.13;7.93;;;;;;;;;;2612624;54;20391;-74
2023/10/05 09:29:12;;;;;;;10.63;7.07;;;;;;;;;;2614569;54;20359;-74
2023/10/05 09:34:37;;;;;;;11.07;6.63;;;;;;;;;;2614574;54;20375;-74
2023/10/05 09:40:15;;;;;;;15.57;7.33;;;;;;;;;;2614664;54;20398;-74
2023/10/05 09:45:46;;;;;;;11.33;7.00;;;;;;;;;;2612253;54;20495;-74
2023/10/05 09:48:31;;;;;;;11.93;7.27;;;;;;;;;;2611782;39;20890;-74
2023/10/05 09:50:59;;;;;;;12.33;7.23;;;;;;;;;;2612781;39;21394;-74
2023/10/05 09:56:28;;;;;;;13.13;8.53;;;;;;;;;;2611076;39;21008;-74
2023/10/05 10:01:57;;;;;;;8.87;7.60;;;;;;;;;;2612110;54;20427;-74
2023/10/05 10:04:35;;;;;;;13.57;8.53;;;;;;;;;;2613098;46;20474;-76
2023/10/05 10:07:04;;;;;;;9.33;6.37;;;;;;;;;;2611470;54;20412;-76
2023/10/05 10:12:38;;;;;;;15.13;6.73;;;;;;;;;;2612653;54;20399;-75
2023/10/05 10:18:14;;;;;;;10.23;8.47;;;;;;;;;;2612608;54;20358;-76
2023/10/05 10:23:50;;;;;;;8.07;7.10;;;;;;;;;;2612886;54;20399;-76
2023/10/05 10:29:23;;;;;;;9.60;7.57;;;;;;;;;;2612414;54;20416;-75
2023/10/05 10:34:55;;;;;;;12.73;7.07;;;;;;;;;;2612203;46;20428;-76
2023/10/05 10:45:55;;;;;;;8.10;6.70;;;;;;;;;;2610375;54;20492;-76
2023/10/05 10:51:31;;;;;;;8.23;7.30;;;;;;;;;;2611276;47;20418;-75
2023/10/05 10:57:01;;;;;;;7.23;6.50;;;;;;;;;;2612265;54;20362;-75
2023/10/05 11:02:38;;;;;;;7.07;6.07;;;;;;;;;;2614343;54;20383;-76
2023/10/05 11:08:08;;;;;;;9.10;6.30;;;;;;;;;;2612246;54;20411;-77
2023/10/05 11:13:45;;;;;;;7.30;6.60;;;;;;;;;;2612277;54;20478;-76
2023/10/05 11:19:24;;;;;;;10.33;7.03;;;;;;;;;;2612556;54;20374;-72
2023/10/05 11:25:00;;;;;;;8.83;6.20;;;;;;;;;;2610632;54;20387;-76
2023/10/05 11:36:27;;;;;;;12.20;7.30;;;;;;;;;;2612599;54;20347;-73
2023/10/05 11:41:58;;;;;;;10.53;6.60;;;;;;;;;;2611552;39;20816;-74
2023/10/05 11:44:44;;;;;;;6.67;5.97;;;;;;;;;;2609320;54;20427;-74
2023/10/05 11:56:15;;;;;;;10.87;7.77;;;;;;;;;;2611177;54;20373;-75
2023/10/05 12:01:44;;;;;;;10.17;8.13;;;;;;;;;;2608458;54;20403;-75
2023/10/05 12:07:14;;;;;;;17.90;8.07;;;;;;;;;;2611691;54;20402;-76
2023/10/05 12:12:50;;;;;;;11.10;8.90;;;;;;;;;;2611670;54;20363;-76
2023/10/05 12:18:21;;;;;;;13.67;8.77;;;;;;;;;;2610288;54;20367;-75
2023/10/05 12:23:51;;;;;;;8.70;7.83;;;;;;;;;;2611502;54;20366;-75
2023/10/05 12:29:21;;;;;;;10.67;8.47;;;;;;;;;;2612601;39;20866;-75
2023/10/05 12:34:51;;;;;;;10.30;9.27;;;;;;;;;;2612284;54;20379;-76
2023/10/05 12:40:26;;;;;;;9.83;7.87;;;;;;;;;;2611801;54;20363;-72
2023/10/05 12:45:56;;;;;;;9.30;8.50;;;;;;;;;;2613264;31;20825;-73
2023/10/05 12:51:26;;;;;;;9.83;8.70;;;;;;;;;;2611094;54;20387;-73
2023/10/05 12:56:56;;;;;;;8.93;8.23;;;;;;;;;;2614128;54;20395;-74
2023/10/05 13:02:26;;;;;;;10.87;8.60;;;;;;;;;;2616406;54;20918;-74
2023/10/05 13:07:55;;;;;;;10.37;9.30;;;;;;;;;;2616461;54;20427;-74
2023/10/05 13:19:32;;;;;;;8.80;8.10;;;;;;;;;;2616151;54;20947;-74
2023/10/05 13:25:02;;;;;;;9.13;8.33;;;;;;;;;;2617492;39;20764;-74
2023/10/05 13:30:40;;;;;;;9.90;9.00;;;;;;;;;;2617118;54;20483;-74
2023/10/05 13:36:14;;;;;;;11.87;10.70;;;;;;;;;;2615739;54;20407;-73
2023/10/05 13:41:46;;;;;;;9.70;8.90;;;;;;;;;;2613756;54;20399;-74
2023/10/05 13:47:17;;;;;;;10.50;9.67;;;;;;;;;;2613268;54;20383;-73
2023/10/05 13:52:50;;;;;;;10.27;9.37;;;;;;;;;;2613329;54;20402;-75
2023/10/05 13:58:20;;;;;;;9.87;8.90;;;;;;;;;;2612219;54;20394;-73
2023/10/05 14:03:50;;;;;;;10.83;9.60;;;;;;;;;;2614293;54;20418;-73
2023/10/05 14:09:22;;;;;;;12.37;9.13;;;;;;;;;;2614255;54;20379;-76
2023/10/05 14:18:24;;;;;;;9.23;8.30;;;;;;;;;;2612759;54;20419;-76
2023/10/05 14:23:58;;;;;;;11.80;10.10;;;;;;;;;;2615191;39;20774;-74
2023/10/05 14:29:34;;;;;;;8.47;7.87;;;;;;;;;;2614353;54;20442;-75
2023/10/05 14:35:09;;;;;;;9.57;8.67;;;;;;;;;;2614176;54;20363;-75
2023/10/05 14:40:39;;;;;;;8.93;7.87;;;;;;;;;;2612111;39;20880;-75
2023/10/05 14:46:09;;;;;;;7.33;6.73;;;;;;;;;;2611346;54;20402;-74
2023/10/05 14:51:39;;;;;;;9.93;8.73;;;;;;;;;;2612663;54;20446;-74
2023/10/05 14:57:09;;;;;;;8.63;7.73;;;;;;;;;;2614485;54;20973;-75
2023/10/05 15:02:39;;;;;;;10.30;7.80;;;;;;;;;;2615538;54;20398;-74
2023/10/05 15:05:25;;;;;;;14.47;9.50;;;;;;;;;;2614320;54;20404;-74
2023/10/05 15:07:58;;;;;;;8.97;8.10;;;;;;;;;;2615281;54;20416;-74
2023/10/05 15:10:24;;;;;;;10.50;7.67;;;;;;;;;;2613315;54;20454;-74
2023/10/05 15:12:51;;;;;;;18.83;8.97;;;;;;;;;;2611269;54;20426;-74
2023/10/05 15:21:59;;;;;;;10.97;10.03;;;;;;;;;;2613133;54;20434;-74
2023/10/05 15:27:29;;;;;;;10.37;9.20;;;;;;;;;;2612947;54;20358;-75
2023/10/05 15:32:59;;;;;;;9.43;8.17;;;;;;;;;;2613437;39;20788;-73
2023/10/05 15:38:28;;;;;;;8.00;7.17;;;;;;;;;;2613488;54;20437;-74
2023/10/05 15:43:57;;;;;;;7.97;7.23;;;;;;;;;;2615767;54;20390;-74
2023/10/05 15:49:27;;;;;;;8.10;7.30;;;;;;;;;;2614304;54;20408;-75
2023/10/05 15:54:57;;;;;;;9.83;8.93;;;;;;;;;;2612939;54;21012;-74
2023/10/05 16:00:27;;;;;;;8.63;7.83;;;;;;;;;;2612164;54;20390;-75
2023/10/05 16:05:59;;;;;;;9.40;8.70;;;;;;;;;;2614457;54;20443;-75
2023/10/05 16:11:29;;;;;;;8.70;8.00;;;;;;;;;;2611800;54;20404;-74
2023/10/05 16:16:58;;;;;;;10.80;8.50;;;;;;;;;;2612961;54;20375;-74
2023/10/05 16:22:28;;;;;;;9.73;7.60;;;;;;;;;;2614327;54;20454;-74
2023/10/05 16:27:59;;;;;;;8.50;7.73;;;;;;;;;;2616878;54;21025;-74
2023/10/05 16:33:30;;;;;;;8.10;7.30;;;;;;;;;;2617373;54;20358;-75
2023/10/05 16:39:01;;;;;;;9.03;8.17;;;;;;;;;;2617447;54;20909;-73
2023/10/05 16:44:31;;;;;;;9.07;8.30;;;;;;;;;;2617414;54;20383;-73
2023/10/05 16:50:00;;;;;;;8.73;8.03;;;;;;;;;;2618266;39;20754;-72
2023/10/05 16:55:30;;;;;;;8.63;7.67;;;;;;;;;;2617606;54;20395;-73
2023/10/05 17:01:00;;;;;;;9.90;9.00;;;;;;;;;;2616299;54;20922;-74
2023/10/05 17:06:31;;;;;;;10.50;9.40;;;;;;;;;;2617260;54;20383;-73
2023/10/05 17:12:01;;;;;;;12.43;9.00;;;;;;;;;;2617114;54;20415;-72
2023/10/05 17:17:32;;;;;;;14.00;8.97;;;;;;;;;;2617071;54;20498;-73
2023/10/05 17:26:30;;;;;;;16.30;8.07;;;;;;;;;;2616947;54;20519;-73
2023/10/05 17:32:03;;;;;;;8.23;7.63;;;;;;;;;;2616293;54;20379;-74
2023/10/05 17:37:33;;;;;;;15.37;7.77;;;;;;;;;;2616712;54;20515;-73
2023/10/05 17:43:04;;;;;;;8.97;8.13;;;;;;;;;;2615306;54;20406;-74
2023/10/05 17:48:33;;;;;;;14.03;8.23;;;;;;;;;;2616017;54;20439;-73
2023/10/05 17:54:03;;;;;;;7.70;7.00;;;;;;;;;;2615690;54;20427;-73
2023/10/05 17:59:33;;;;;;;15.10;7.10;;;;;;;;;;2615802;54;20390;-72
2023/10/05 18:05:05;;;;;;;8.30;7.20;;;;;;;;;;2616281;54;20516;-73
2023/10/05 18:10:40;;;;;;;8.10;7.23;;;;;;;;;;2615394;54;20414;-73
2023/10/05 18:16:10;;;;;;;8.27;7.30;;;;;;;;;;2613334;54;20913;-73
2023/10/05 18:21:40;;;;;;;7.83;6.90;;;;;;;;;;2610895;54;20355;-73
2023/10/05 18:27:11;;;;;;;8.93;6.97;;;;;;;;;;2610813;39;20835;-73
2023/10/05 18:32:40;;;;;;;9.10;8.00;;;;;;;;;;2612020;54;20403;-73
2023/10/05 18:38:10;;;;;;;10.23;8.47;;;;;;;;;;2610730;54;20378;-74
2023/10/05 18:43:40;;;;;;;18.63;8.80;;;;;;;;;;2608963;54;20559;-74
2023/10/05 18:49:10;;;;;;;9.97;9.07;;;;;;;;;;2611069;54;20387;-73
2023/10/05 18:54:42;;;;;;;13.30;8.13;;;;;;;;;;2610111;54;20382;-74
2023/10/05 19:00:19;;;;;;;10.70;8.27;;;;;;;;;;2609391;54;20438;-73
2023/10/05 19:05:48;;;;;;;7.80;7.10;;;;;;;;;;2608874;54;20478;-72
2023/10/05 19:11:19;;;;;;;8.17;7.47;;;;;;;;;;2611965;54;20415;-73
2023/10/05 19:16:48;;;;;;;7.53;6.73;;;;;;;;;;2611224;54;21005;-75
2023/10/05 19:22:18;;;;;;;8.07;6.90;;;;;;;;;;2609875;54;21154;-73
2023/10/05 19:31:15;;;;;;;7.17;6.43;;;;;;;;;;2610977;54;20432;-72
2023/10/05 19:36:44;;;;;;;15.20;7.17;;;;;;;;;;2610301;54;20391;-73
2023/10/05 19:42:14;;;;;;;8.87;7.70;;;;;;;;;;2607388;54;20395;-74
2023/10/05 19:47:43;;;;;;;13.27;7.50;;;;;;;;;;2609474;54;20391;-74
2023/10/05 19:53:12;;;;;;;10.10;7.97;;;;;;;;;;2611431;54;21109;-74
2023/10/05 19:58:42;;;;;;;7.70;7.10;;;;;;;;;;2609481;46;20439;-75
2023/10/05 20:04:13;;;;;;;8.83;7.63;;;;;;;;;;2610466;54;20387;-73
2023/10/05 20:09:44;;;;;;;11.80;7.80;;;;;;;;;;2610000;54;20383;-73
2023/10/05 20:15:13;;;;;;;8.60;6.90;;;;;;;;;;2615018;54;20966;-73
2023/10/05 20:20:43;;;;;;;7.77;7.03;;;;;;;;;;2612389;54;20363;-74
2023/10/05 20:26:12;;;;;;;12.50;7.90;;;;;;;;;;2615449;54;20904;-74
2023/10/05 20:31:42;;;;;;;11.93;7.83;;;;;;;;;;2617041;54;20463;-75
2023/10/05 20:37:12;;;;;;;12.83;6.80;;;;;;;;;;2613966;54;20387;-74
2023/10/05 20:42:42;;;;;;;9.53;7.53;;;;;;;;;;2613748;54;20366;-73
2023/10/05 20:48:12;;;;;;;7.80;6.37;;;;;;;;;;2614679;54;20375;-74
2023/10/05 20:53:41;;;;;;;7.10;6.40;;;;;;;;;;2614505;54;20363;-73
2023/10/05 20:59:12;;;;;;;9.07;6.87;;;;;;;;;;2614796;54;20387;-74
2023/10/05 21:04:41;;;;;;;8.47;6.87;;;;;;;;;;2615286;54;20362;-74
2023/10/05 21:10:11;;;;;;;9.60;7.10;;;;;;;;;;2614783;54;20825;-73
2023/10/05 21:15:41;;;;;;;10.37;8.37;;;;;;;;;;2613584;54;20359;-74
2023/10/05 21:21:10;;;;;;;11.07;7.53;;;;;;;;;;2614361;39;20859;-73
2023/10/05 21:26:40;;;;;;;10.13;9.13;;;;;;;;;;2614929;54;20363;-74
2023/10/05 21:35:51;;;;;;;9.00;6.47;;;;;;;;;;2614369;54;21013;-73
2023/10/05 21:41:21;;;;;;;12.40;7.97;;;;;;;;;;2616217;54;21021;-74
2023/10/05 21:46:51;;;;;;;10.30;6.40;;;;;;;;;;2617353;54;20411;-74
2023/10/05 21:52:21;;;;;;;7.50;6.20;;;;;;;;;;2617205;54;20370;-74
2023/10/05 21:57:51;;;;;;;10.50;8.37;;;;;;;;;;2616831;54;20375;-74
2023/10/05 22:03:21;;;;;;;11.90;7.43;;;;;;;;;;2617168;54;20402;-73
2023/10/05 22:08:52;;;;;;;13.03;7.67;;;;;;;;;;2617160;54;20419;-74
2023/10/05 22:14:21;;;;;;;8.97;6.67;;;;;;;;;;2616992;54;20957;-74
2023/10/05 22:19:51;;;;;;;10.23;7.17;;;;;;;;;;2617000;54;20408;-74
2023/10/05 22:25:22;;;;;;;11.97;7.03;;;;;;;;;;2617376;54;20363;-74
2023/10/05 22:28:06;;;;;;;11.40;6.50;;;;;;;;;;2616729;54;20950;-74
2023/10/05 22:30:33;;;;;;;8.37;7.50;;;;;;;;;;2616639;54;20969;-73
2023/10/05 22:45:30;;;;;;;7.63;6.93;;;;;;;;;;2615087;54;20398;-74
2023/10/05 22:50:59;;;;;;;10.10;7.47;;;;;;;;;;2615822;54;20454;-74
2023/10/05 22:56:28;;;;;;;9.90;6.87;;;;;;;;;;2615740;54;20410;-74
2023/10/05 23:01:59;;;;;;;11.67;6.93;;;;;;;;;;2615894;54;20382;-74
2023/10/05 23:07:28;;;;;;;9.90;7.10;;;;;;;;;;2616824;54;20358;-74
2023/10/05 23:12:57;;;;;;;12.93;6.87;;;;;;;;;;2615831;54;20449;-73
2023/10/05 23:18:27;;;;;;;12.83;7.40;;;;;;;;;;2617805;54;20499;-73
2023/10/05 23:23:57;;;;;;;14.27;8.63;;;;;;;;;;2617691;54;20479;-73
2023/10/05 23:29:29;;;;;;;9.13;6.43;;;;;;;;;;2617068;54;20379;-73
2023/10/05 23:34:58;;;;;;;12.40;8.67;;;;;;;;;;2618151;39;20756;-73
2023/10/05 23:40:28;;;;;;;10.93;7.90;;;;;;;;;;2617272;54;20890;-74
2023/10/05 23:45:58;;;;;;;16.40;7.07;;;;;;;;;;2617373;54;20363;-74
2023/10/05 23:51:27;;;;;;;12.40;8.53;;;;;;;;;;2617212;54;20382;-74
2023/10/05 23:56:57;;;;;;;10.93;7.00;;;;;;;;;;2615283;54;20423;-73
